Main page
METAR-TAF:

METAR-TAF

Airports :

Tabriz International Airport

Tabriz, Iran

latitude: 38-05N, longitude: 046-17E, elevation: 1367 m

Current weather observation

The report was made 13 minutes ago, at 18:30 UTC
Wind 2 kt from variable directions
Temperature 5°C
Humidity 48%
Pressure 1024 hPa
Visibility 10 km or more
no clouds below 1500 m and no cumulonimbus

METAR: OITT 191830Z VRB02KT CAVOK 05/M05 Q1024 A3024

Time: 22:13 (18:43 UTC)

Forecast

The report was made 53 minutes ago, at 17:50 UTC
Forecast valid from 19 at 18 UTC to 20 at 24 UTC
Wind 6 kt from the Northeast
Visibility 10 km or more
no clouds below 1500 m and no cumulonimbus

TAF: OITT 191750Z 1918/2024 04003MPS CAVOK

Weather observations and forecasts of more than 4000 airports (METAR and TAF reports).

The available stations are represented by yellow and red dots on the map.

Hover mouse over dot to see the name of the station.

Then click to see weather observations and forecasts.

To change the map : click on the green buttons with a black cross to zoom in, on the green button with a dash to zoom out, or on the green arrows for adjacent maps.


METAR-TAF: